Richville, Ohio
Current Conditions -  °F | °C
As of 1:51 PM on Friday 21 Nov 2014 (Local Time) from KCAK Reporting Station
Scattered Clouds Scattered Clouds  
Wind Chill: 14°   Ceiling: Unl
Heat Index: 24°   Visibility: 10mi
Dew Point:   Wind: 9mph
Humidity: 51%   Direction: 240°WSW
Pressure: 30.45"   Gusts: NA
Location:  40.7516°N, 81.4187°W
Report Text: KCAK 211851Z 24008KT 10SM SCT038 SCT250 M04/M13 A3045 RMK AO2 SLP332 T10441133
Loading
Personal Weather Stations






























Interactive Weather Map New forecast layout! Learn more

10-Day Weather Forecast

Advertisements
Track Severe Weather on mobile